Terminal Aerodrome Forecast
Issued by NWS Upton, NY

Home | Current Version | Previous Version | Text Only | Print | Product List | Glossary On
Versions: 1 2 3 4 5 6 7 8 9 10 11 12 13 14 15 16 17 18 19 20 21 22 23 24 25 26 27 28 29
134
FTUS41 KOKX 292340
TAFISP
TAF
KISP 292340Z 3000/3024 18015KT 1SM BR BKN003 BKN015 OVC020
     FM300300 18010KT 3SM -SHRA BR BKN003 OVC010
     FM300800 18006KT 2SM SHRA BR SCT003 OVC005
     FM301100 20010KT 2SM SHRA BR OVC005
      TEMPO 3011/3015 1SM +SHRA BR
     FM302200 21008KT 4SM -SHRA BR OVC007=

USA.gov is the U.S. government's official web portal to all federal, state and local government web resources and services.